createdAt,value
2023-04-15T00:00:58.950Z,92.40
2023-04-15T00:03:27.445Z,92.60
2023-04-15T00:05:55.668Z,92.50
2023-04-15T00:08:24.237Z,92.50
2023-04-15T00:10:52.167Z,92.60
2023-04-15T00:13:20.745Z,92.20
2023-04-15T00:15:49.185Z,92.80
2023-04-15T00:18:17.294Z,92.80
2023-04-15T00:20:45.310Z,92.70
2023-04-15T00:23:13.399Z,92.60
2023-04-15T00:25:41.525Z,92.80
2023-04-15T00:28:09.870Z,93.30
2023-04-15T00:30:37.920Z,93.10
2023-04-15T00:33:05.905Z,93.30
2023-04-15T00:35:34.157Z,93.20
2023-04-15T00:38:02.269Z,93.20
2023-04-15T00:40:32.657Z,93.90
2023-04-15T00:43:00.726Z,93.60
2023-04-15T00:45:31.235Z,93.40
2023-04-15T00:48:05.690Z,93.40
2023-04-15T00:50:33.955Z,93.70
2023-04-15T00:53:03.036Z,93.50
2023-04-15T00:55:31.110Z,93.40
2023-04-15T00:57:59.701Z,93.60
2023-04-15T01:00:27.816Z,93.80
2023-04-15T01:02:58.512Z,93.40
2023-04-15T01:05:27.461Z,93.90
2023-04-15T01:07:55.938Z,93.80
2023-04-15T01:10:24.326Z,93.60
2023-04-15T01:12:52.932Z,93.80
2023-04-15T01:15:21.778Z,93.90
2023-04-15T01:17:51.246Z,93.90
2023-04-15T01:20:19.491Z,94.10
2023-04-15T01:22:47.486Z,93.90
2023-04-15T01:25:18.980Z,93.50
2023-04-15T01:27:48.058Z,93.60
2023-04-15T01:30:17.751Z,93.50
2023-04-15T01:32:48.107Z,93.80
2023-04-15T01:35:34.296Z,93.70
2023-04-15T01:38:11.929Z,94.40
2023-04-15T01:40:42.001Z,94.60
2023-04-15T01:43:11.401Z,94.50
2023-04-15T01:45:40.700Z,94.00
2023-04-15T01:48:10.813Z,94.60
2023-04-15T01:50:40.467Z,94.60
2023-04-15T01:53:10.076Z,94.40
2023-04-15T01:55:39.943Z,95.00
2023-04-15T01:58:09.471Z,95.10
2023-04-15T02:00:38.919Z,94.60
2023-04-15T02:03:08.605Z,95.40
2023-04-15T02:05:38.063Z,94.80
2023-04-15T02:08:07.329Z,95.40
2023-04-15T02:10:40.101Z,95.30
2023-04-15T02:13:09.929Z,95.40
2023-04-15T02:15:39.183Z,95.00
2023-04-15T02:18:08.699Z,95.30
2023-04-15T02:20:40.983Z,95.00
2023-04-15T02:23:12.157Z,95.70
2023-04-15T02:25:41.932Z,95.70
2023-04-15T02:28:12.523Z,95.40
2023-04-15T02:30:41.903Z,95.60
2023-04-15T02:33:13.446Z,95.40
2023-04-15T02:35:46.001Z,95.20
2023-04-15T02:38:18.314Z,94.80
2023-04-15T02:40:50.073Z,94.70
2023-04-15T02:43:19.510Z,94.80
2023-04-15T02:45:48.963Z,94.50
2023-04-15T02:48:20.751Z,94.80
2023-04-15T02:50:50.013Z,94.80
2023-04-15T02:53:20.434Z,94.80
2023-04-15T02:55:49.840Z,94.80
2023-04-15T02:58:19.053Z,94.70
2023-04-15T03:00:48.472Z,94.70
2023-04-15T03:03:17.837Z,94.60
2023-04-15T03:05:47.231Z,94.80
2023-04-15T03:08:19.856Z,94.80
2023-04-15T03:10:52.740Z,94.80
2023-04-15T03:13:24.976Z,94.80
2023-04-15T03:15:56.022Z,94.80
2023-04-15T03:18:27.092Z,94.70
2023-04-15T03:20:56.970Z,94.80
2023-04-15T03:23:26.434Z,94.70
2023-04-15T03:25:58.216Z,94.90
2023-04-15T03:28:30.901Z,94.70
2023-04-15T03:31:01.447Z,94.90
2023-04-15T03:33:31.257Z,95.00
2023-04-15T03:36:00.763Z,95.00
2023-04-15T03:38:32.251Z,94.90
2023-04-15T03:41:04.065Z,94.80
2023-04-15T03:43:33.499Z,94.50
2023-04-15T03:46:02.892Z,94.60
2023-04-15T03:48:32.301Z,94.60
2023-04-15T03:51:01.852Z,94.30
2023-04-15T03:53:31.457Z,94.30
2023-04-15T03:56:00.764Z,94.20
2023-04-15T03:58:30.045Z,93.90
2023-04-15T04:00:59.811Z,93.90
2023-04-15T04:03:30.321Z,94.00
2023-04-15T04:06:00.398Z,93.90
2023-04-15T04:08:29.735Z,93.70
2023-04-15T04:10:59.091Z,93.80
2023-04-15T04:13:28.619Z,93.60
2023-04-15T04:15:57.973Z,93.70
2023-04-15T04:18:28.932Z,93.90
2023-04-15T04:20:58.465Z,93.70
2023-04-15T04:23:27.818Z,93.80
2023-04-15T04:25:58.220Z,94.00
2023-04-15T04:28:27.926Z,94.10
2023-04-15T04:30:57.994Z,94.10
2023-04-15T04:33:27.324Z,94.00
2023-04-15T04:35:59.718Z,93.80
2023-04-15T04:38:29.052Z,93.70
2023-04-15T04:41:00.963Z,93.70
2023-04-15T04:43:31.183Z,93.80
2023-04-15T04:46:00.572Z,93.80
2023-04-15T04:48:29.976Z,93.70
2023-04-15T04:51:00.244Z,93.60
2023-04-15T04:53:30.261Z,93.50
2023-04-15T04:56:00.158Z,93.60
2023-04-15T04:58:31.781Z,93.40
2023-04-15T05:01:01.566Z,93.30
2023-04-15T05:03:33.614Z,93.10
2023-04-15T05:06:08.211Z,93.20
2023-04-15T05:08:39.892Z,93.40
2023-04-15T05:11:12.588Z,93.40
2023-04-15T05:13:41.966Z,92.70
2023-04-15T05:16:11.455Z,91.40
2023-04-15T05:18:40.796Z,90.40
2023-04-15T05:21:10.077Z,89.20
2023-04-15T05:23:42.216Z,88.30
2023-04-15T05:26:12.415Z,88.50
2023-04-15T05:28:44.150Z,87.10
2023-04-15T05:31:13.732Z,87.40
2023-04-15T05:33:43.311Z,87.50
2023-04-15T05:36:12.640Z,87.20
2023-04-15T05:38:44.612Z,86.70
2023-04-15T05:41:17.813Z,86.40
2023-04-15T05:43:49.307Z,86.30
2023-04-15T05:46:18.666Z,86.60
2023-04-15T05:48:48.020Z,86.70
2023-04-15T05:51:17.505Z,86.70
2023-04-15T05:53:49.327Z,87.10
2023-04-15T05:56:18.652Z,86.40
2023-04-15T05:58:51.905Z,85.10
2023-04-15T06:01:23.124Z,84.00
2023-04-15T06:03:54.824Z,82.70
2023-04-15T06:06:24.761Z,81.60
2023-04-15T06:08:56.302Z,80.50
2023-04-15T06:11:28.250Z,79.40
2023-04-15T06:13:58.318Z,78.70
2023-04-15T06:16:29.434Z,77.90
2023-04-15T06:18:58.864Z,76.70
2023-04-15T06:21:28.361Z,75.80
2023-04-15T06:23:58.858Z,74.10
2023-04-15T06:26:28.694Z,71.90
2023-04-15T06:28:58.074Z,67.00
2023-04-15T06:31:27.437Z,67.20
2023-04-15T06:33:56.974Z,64.90
2023-04-15T06:36:26.940Z,60.10
2023-04-15T06:38:57.514Z,60.20
2023-04-15T06:41:26.944Z,57.80
2023-04-15T06:43:56.344Z,55.20
2023-04-15T06:46:25.677Z,55.10
2023-04-15T06:48:55.133Z,52.20
2023-04-15T06:51:26.534Z,54.30
2023-04-15T06:53:56.217Z,52.60
2023-04-15T06:56:25.625Z,46.20
2023-04-15T06:58:54.944Z,50.30
2023-04-15T07:01:24.299Z,48.90
2023-04-15T07:03:53.632Z,46.50
2023-04-15T07:06:23.065Z,46.30
2023-04-15T07:08:55.418Z,44.40
2023-04-15T07:11:26.344Z,46.00
2023-04-15T07:13:55.993Z,40.50
2023-04-15T07:16:27.085Z,39.80
2023-04-15T07:19:00.463Z,43.20
2023-04-15T07:21:30.176Z,39.60
2023-04-15T07:23:59.645Z,41.30
2023-04-15T07:26:31.263Z,38.40
2023-04-15T07:29:00.964Z,38.80
2023-04-15T07:31:30.627Z,40.80
2023-04-15T07:34:03.174Z,36.50
2023-04-15T07:36:32.629Z,37.80
2023-04-15T07:39:04.252Z,38.60
2023-04-15T07:41:34.301Z,40.50
2023-04-15T07:44:03.728Z,39.80
2023-04-15T07:46:33.176Z,35.50
2023-04-15T07:49:02.704Z,35.70
2023-04-15T07:51:32.731Z,33.10
2023-04-15T07:54:05.256Z,34.50
2023-04-15T07:56:34.530Z,34.50
2023-04-15T07:59:05.109Z,33.40
2023-04-15T08:01:37.239Z,34.30
2023-04-15T08:04:06.835Z,33.60
2023-04-15T08:06:37.034Z,35.60
2023-04-15T08:09:06.721Z,38.00
2023-04-15T08:11:38.348Z,37.30
2023-04-15T08:14:10.122Z,39.00
2023-04-15T08:16:39.498Z,39.20
2023-04-15T08:19:08.799Z,40.30
2023-04-15T08:21:38.423Z,39.80
2023-04-15T08:24:08.513Z,34.40
2023-04-15T08:26:37.808Z,33.80
2023-04-15T08:29:07.087Z,31.30
2023-04-15T08:31:36.601Z,31.30
2023-04-15T08:34:06.153Z,31.20
2023-04-15T08:36:35.524Z,30.70
2023-04-15T08:39:08.333Z,30.80
2023-04-15T08:41:46.888Z,31.70
2023-04-15T08:44:16.753Z,29.20
2023-04-15T08:46:46.428Z,28.50
2023-04-15T08:49:16.245Z,30.60
2023-04-15T08:51:45.870Z,30.60
2023-04-15T08:54:15.225Z,28.40
2023-04-15T08:56:45.219Z,27.60
2023-04-15T08:59:15.344Z,28.40
2023-04-15T09:01:47.144Z,27.90
2023-04-15T09:04:17.229Z,28.10
2023-04-15T09:06:47.579Z,29.70
2023-04-15T09:09:17.272Z,26.40
2023-04-15T09:11:46.689Z,27.40
2023-04-15T09:14:19.204Z,30.00
2023-04-15T09:16:59.150Z,31.60
2023-04-15T09:19:29.238Z,28.70
2023-04-15T09:22:00.034Z,26.50
2023-04-15T09:24:41.420Z,28.30
2023-04-15T09:27:11.566Z,29.90
2023-04-15T09:29:42.274Z,28.70
2023-04-15T09:32:15.239Z,30.60
2023-04-15T09:34:45.180Z,27.80
2023-04-15T09:37:29.086Z,28.00
2023-04-15T09:40:01.563Z,28.80
2023-04-15T09:42:31.548Z,29.00
2023-04-15T09:45:11.932Z,30.00
2023-04-15T09:47:41.960Z,30.70
2023-04-15T09:50:15.170Z,32.80
2023-04-15T09:52:45.013Z,30.60
2023-04-15T09:55:15.175Z,34.20
2023-04-15T09:57:47.582Z,31.80
2023-04-15T10:00:17.410Z,34.10
2023-04-15T10:02:48.638Z,34.50
2023-04-15T10:05:18.660Z,33.20
2023-04-15T10:07:48.662Z,37.50
2023-04-15T10:10:19.290Z,35.30
2023-04-15T10:12:50.083Z,35.80
2023-04-15T10:15:19.557Z,36.50
2023-04-15T10:17:51.558Z,34.30
2023-04-15T10:20:21.801Z,33.40
2023-04-15T10:22:52.325Z,33.20
2023-04-15T10:25:22.118Z,33.40
2023-04-15T10:27:53.340Z,34.30
2023-04-15T10:30:23.161Z,34.10
2023-04-15T10:32:52.920Z,35.60
2023-04-15T10:35:22.919Z,35.50
2023-04-15T10:37:52.372Z,37.30
2023-04-15T10:40:35.061Z,34.80
2023-04-15T10:43:04.527Z,36.10
2023-04-15T10:45:34.751Z,36.90
2023-04-15T10:48:07.414Z,36.70
2023-04-15T10:50:37.597Z,36.50
2023-04-15T10:53:10.709Z,36.50
2023-04-15T10:55:43.103Z,37.90
2023-04-15T10:58:12.578Z,36.20
2023-04-15T11:00:50.429Z,35.30
2023-04-15T11:03:37.174Z,36.20
2023-04-15T11:06:09.695Z,36.60
2023-04-15T11:08:56.392Z,35.00
2023-04-15T11:11:44.936Z,37.00
2023-04-15T11:14:17.951Z,35.90
2023-04-15T11:16:47.298Z,38.90
2023-04-15T11:19:17.215Z,37.20
2023-04-15T11:21:46.780Z,35.80
2023-04-15T11:24:28.859Z,35.90
2023-04-15T11:26:59.248Z,34.10
2023-04-15T11:29:34.968Z,36.70
2023-04-15T11:32:08.020Z,36.40
2023-04-15T11:34:37.551Z,33.90
2023-04-15T11:37:07.088Z,34.20
2023-04-15T11:39:37.864Z,35.20
2023-04-15T11:42:16.942Z,33.90
2023-04-15T11:44:46.369Z,36.10
2023-04-15T11:47:25.349Z,37.00
2023-04-15T11:49:54.763Z,36.00
2023-04-15T11:52:22.980Z,38.90
2023-04-15T11:54:51.086Z,37.00
2023-04-15T11:57:19.057Z,39.00
2023-04-15T11:59:47.267Z,36.50
2023-04-15T12:02:15.504Z,38.10
2023-04-15T12:04:43.766Z,39.80
2023-04-15T12:07:13.081Z,40.80
2023-04-15T12:09:41.442Z,37.70
2023-04-15T12:12:11.042Z,38.30
2023-04-15T12:14:40.420Z,38.50
2023-04-15T12:17:11.561Z,37.60
2023-04-15T12:19:43.652Z,35.70
2023-04-15T12:22:12.915Z,35.10
2023-04-15T12:24:41.058Z,35.70
2023-04-15T12:27:10.222Z,35.00
2023-04-15T12:29:39.530Z,36.70
2023-04-15T12:32:11.619Z,38.10
2023-04-15T12:34:44.031Z,37.70
2023-04-15T12:37:15.405Z,39.50
2023-04-15T12:39:44.979Z,36.40
2023-04-15T12:42:13.404Z,37.40
2023-04-15T12:44:41.352Z,37.70
2023-04-15T12:47:10.097Z,40.90
2023-04-15T12:49:38.332Z,38.70
2023-04-15T12:52:06.938Z,40.00
2023-04-15T12:54:37.230Z,39.20
2023-04-15T12:57:07.248Z,40.00
2023-04-15T12:59:36.446Z,40.40
2023-04-15T13:02:04.808Z,39.70
2023-04-15T13:04:33.093Z,39.00
2023-04-15T13:07:01.989Z,38.00
2023-04-15T13:09:30.033Z,36.70
2023-04-15T13:11:58.587Z,38.50
2023-04-15T13:14:27.492Z,37.60
2023-04-15T13:16:55.704Z,36.40
2023-04-15T13:19:23.670Z,36.50
2023-04-15T13:21:51.852Z,37.10
2023-04-15T13:24:19.883Z,39.20
2023-04-15T13:26:50.101Z,38.50
2023-04-15T13:29:18.370Z,36.70
2023-04-15T13:31:46.632Z,38.70
2023-04-15T13:34:14.650Z,37.50
2023-04-15T13:36:42.600Z,37.40
2023-04-15T13:39:10.638Z,35.40
2023-04-15T13:41:38.602Z,36.90
2023-04-15T13:44:06.871Z,37.60
2023-04-15T13:46:35.295Z,37.40
2023-04-15T13:49:03.460Z,37.80
2023-04-15T13:51:33.302Z,38.00
2023-04-15T13:54:01.343Z,38.70
2023-04-15T13:56:29.776Z,40.00
2023-04-15T13:59:02.713Z,38.60
2023-04-15T14:01:30.703Z,39.50
2023-04-15T14:03:58.811Z,39.10
2023-04-15T14:06:27.799Z,38.90
2023-04-15T14:08:56.032Z,40.40
2023-04-15T14:11:24.019Z,43.00
2023-04-15T14:13:52.128Z,41.70
2023-04-15T14:16:20.144Z,43.30
2023-04-15T14:18:48.155Z,41.90
2023-04-15T14:21:16.547Z,42.50
2023-04-15T14:23:44.481Z,42.40
2023-04-15T14:26:12.649Z,41.90
2023-04-15T14:28:40.757Z,43.20
2023-04-15T14:31:08.850Z,41.90
2023-04-15T14:33:36.960Z,43.50
2023-04-15T14:36:05.204Z,44.00
2023-04-15T14:38:38.824Z,44.70
2023-04-15T14:41:07.435Z,44.20
2023-04-15T14:43:35.735Z,43.70
2023-04-15T14:46:03.997Z,44.20
2023-04-15T14:48:32.584Z,42.90
2023-04-15T14:51:00.746Z,44.80
2023-04-15T14:53:28.638Z,43.70
2023-04-15T14:55:56.712Z,44.90
2023-04-15T14:58:25.168Z,44.20
2023-04-15T15:00:53.188Z,44.80
2023-04-15T15:03:21.368Z,44.70
2023-04-15T15:05:49.549Z,44.60
2023-04-15T15:08:17.754Z,45.70
2023-04-15T15:10:48.384Z,46.00
2023-04-15T15:13:18.844Z,44.70
2023-04-15T15:15:47.053Z,44.40
2023-04-15T15:18:16.061Z,43.20
2023-04-15T15:20:44.060Z,45.00
2023-04-15T15:23:12.277Z,44.00
2023-04-15T15:25:40.240Z,44.20
2023-04-15T15:28:09.507Z,44.80
2023-04-15T15:30:37.504Z,45.90
2023-04-15T15:33:05.678Z,45.60
2023-04-15T15:35:33.893Z,46.00
2023-04-15T15:38:04.304Z,46.70
2023-04-15T15:40:32.366Z,48.60
2023-04-15T15:43:00.717Z,47.30
2023-04-15T15:45:28.743Z,47.30
2023-04-15T15:47:59.668Z,47.60
2023-04-15T15:50:27.938Z,48.10
2023-04-15T15:52:56.327Z,48.50
2023-04-15T15:55:26.281Z,49.30
2023-04-15T15:57:54.897Z,50.00
2023-04-15T16:00:23.744Z,50.70
2023-04-15T16:05:26.100Z,50.60
2023-04-15T16:07:54.224Z,51.40
2023-04-15T16:10:22.221Z,51.30
2023-04-15T16:12:50.482Z,51.90
2023-04-15T16:15:18.608Z,51.10
2023-04-15T16:17:46.678Z,51.10
2023-04-15T16:20:14.784Z,51.50
2023-04-15T16:22:42.931Z,51.20
2023-04-15T16:25:11.132Z,52.00
2023-04-15T16:30:10.796Z,52.10
2023-04-15T16:32:38.995Z,53.90
2023-04-15T16:35:07.640Z,55.30
2023-04-15T16:37:36.573Z,55.30
2023-04-15T16:40:04.760Z,56.00
2023-04-15T16:42:32.957Z,56.20
2023-04-15T16:45:01.036Z,57.10
2023-04-15T16:47:29.150Z,57.70
2023-04-15T16:49:57.550Z,57.90
2023-04-15T16:52:25.774Z,58.80
2023-04-15T16:54:53.865Z,59.10
2023-04-15T16:57:21.939Z,59.20
2023-04-15T16:59:51.503Z,60.00
2023-04-15T17:02:19.669Z,60.00
2023-04-15T17:04:47.753Z,59.40
2023-04-15T17:07:15.962Z,59.30
2023-04-15T17:09:44.042Z,59.80
2023-04-15T17:12:12.066Z,60.10
2023-04-15T17:14:40.301Z,60.50
2023-04-15T17:17:08.935Z,60.00
2023-04-15T17:19:38.018Z,60.10
2023-04-15T17:22:09.514Z,60.00
2023-04-15T17:24:37.746Z,60.50
2023-04-15T17:27:10.198Z,61.00
2023-04-15T17:29:38.721Z,61.20
2023-04-15T17:32:19.137Z,61.00
2023-04-15T17:35:07.427Z,61.20
2023-04-15T17:37:55.437Z,61.40
2023-04-15T17:40:43.453Z,61.60
2023-04-15T17:43:31.854Z,61.60
2023-04-15T17:46:19.819Z,61.70
2023-04-15T17:49:07.671Z,62.00
2023-04-15T17:51:55.949Z,62.30
2023-04-15T17:54:43.889Z,63.00
2023-04-15T17:57:31.815Z,63.30
2023-04-15T18:00:19.823Z,63.50
2023-04-15T18:03:09.063Z,63.50
2023-04-15T18:05:57.000Z,63.10
2023-04-15T18:08:44.790Z,63.50
2023-04-15T18:11:33.678Z,63.80
2023-04-15T18:14:33.580Z,63.90
2023-04-15T18:17:22.861Z,64.10
2023-04-15T18:20:11.098Z,64.60
2023-04-15T18:22:39.124Z,65.50
2023-04-15T18:25:07.606Z,65.40
2023-04-15T18:27:36.245Z,65.40
2023-04-15T18:30:04.544Z,65.60
2023-04-15T18:32:33.075Z,65.30
2023-04-15T18:35:01.243Z,65.50
2023-04-15T18:37:32.249Z,66.10
2023-04-15T18:40:00.308Z,65.80
2023-04-15T18:42:28.378Z,66.10
2023-04-15T18:44:56.439Z,66.10
2023-04-15T18:47:26.927Z,65.90
2023-04-15T18:49:55.223Z,66.10
2023-04-15T18:52:23.201Z,66.50
2023-04-15T18:54:51.488Z,67.10
2023-04-15T18:57:20.463Z,67.20
2023-04-15T18:59:51.885Z,66.60
2023-04-15T19:02:20.203Z,67.10
2023-04-15T19:04:48.319Z,67.20
2023-04-15T19:07:16.894Z,67.20
2023-04-15T19:09:45.100Z,67.40
2023-04-15T19:12:13.340Z,68.20
2023-04-15T19:14:41.759Z,68.60
2023-04-15T19:17:09.803Z,68.30
2023-04-15T19:19:37.780Z,68.50
2023-04-15T19:22:06.326Z,68.70
2023-04-15T19:24:34.644Z,69.10
2023-04-15T19:27:02.616Z,69.20
2023-04-15T19:29:30.616Z,69.40
2023-04-15T19:31:58.730Z,69.40
2023-04-15T19:34:26.727Z,69.90
2023-04-15T19:36:54.856Z,70.40
2023-04-15T19:39:22.840Z,70.50
2023-04-15T19:41:51.772Z,70.30
2023-04-15T19:44:20.615Z,70.40
2023-04-15T19:46:50.499Z,70.60
2023-04-15T19:49:18.573Z,71.60
2023-04-15T19:51:48.283Z,71.60
2023-04-15T19:54:16.537Z,72.00
2023-04-15T19:56:44.635Z,72.20
2023-04-15T19:59:13.231Z,71.80
2023-04-15T20:01:41.204Z,72.80
2023-04-15T20:04:09.437Z,73.40
2023-04-15T20:06:37.651Z,73.40
2023-04-15T20:09:06.040Z,73.40
2023-04-15T20:12:05.650Z,74.00
2023-04-15T20:14:22.961Z,74.40
2023-04-15T20:16:50.894Z,73.90
2023-04-15T20:19:18.882Z,74.60
2023-04-15T20:21:46.968Z,74.80
2023-04-15T20:24:15.000Z,74.30
2023-04-15T20:26:42.931Z,74.40
2023-04-15T20:29:11.340Z,74.10
2023-04-15T20:31:39.413Z,74.70
2023-04-15T20:34:08.831Z,75.10
2023-04-15T20:36:38.708Z,74.90
2023-04-15T20:39:06.911Z,75.90
2023-04-15T20:41:35.240Z,76.00
2023-04-15T20:44:03.324Z,75.60
2023-04-15T20:46:31.509Z,76.40
2023-04-15T20:49:01.401Z,76.30
2023-04-15T20:51:33.559Z,76.10
2023-04-15T20:54:01.683Z,76.20
2023-04-15T20:56:29.711Z,76.40
2023-04-15T20:58:57.960Z,76.60
2023-04-15T21:01:26.323Z,77.50
2023-04-15T21:03:54.485Z,77.90
2023-04-15T21:06:22.554Z,78.00
2023-04-15T21:08:52.779Z,78.00
2023-04-15T21:11:38.850Z,77.60
2023-04-15T21:14:09.111Z,78.00
2023-04-15T21:16:37.259Z,78.20
2023-04-15T21:19:05.442Z,78.70
2023-04-15T21:21:33.664Z,78.80
2023-04-15T21:24:01.659Z,79.10
2023-04-15T21:26:29.610Z,79.00
2023-04-15T21:28:57.601Z,79.40
2023-04-15T21:31:25.755Z,79.80
2023-04-15T21:33:53.795Z,79.90
2023-04-15T21:36:21.790Z,80.20
2023-04-15T21:38:49.937Z,80.10
2023-04-15T21:41:18.082Z,80.70
2023-04-15T21:43:46.289Z,81.20
2023-04-15T21:46:23.145Z,81.60
2023-04-15T21:48:53.622Z,81.50
2023-04-15T21:51:21.766Z,81.80
2023-04-15T21:53:49.952Z,81.60
2023-04-15T21:56:17.898Z,81.60
2023-04-15T21:58:45.935Z,82.30
2023-04-15T22:01:13.984Z,82.90
2023-04-15T22:03:42.287Z,83.60
2023-04-15T22:06:10.371Z,83.50
2023-04-15T22:08:48.794Z,83.40
2023-04-15T22:11:27.901Z,83.50
2023-04-15T22:13:57.647Z,83.50
2023-04-15T22:16:26.063Z,84.10
2023-04-15T22:18:54.682Z,84.60
2023-04-15T22:21:22.862Z,85.70
2023-04-15T22:23:51.527Z,84.60
2023-04-15T22:26:19.454Z,84.90
2023-04-15T22:28:47.714Z,84.90
2023-04-15T22:31:15.849Z,85.20
2023-04-15T22:33:43.832Z,85.20
2023-04-15T22:36:11.958Z,85.30
2023-04-15T22:38:40.035Z,84.90
2023-04-15T22:41:07.983Z,85.00
2023-04-15T22:43:36.087Z,85.10
2023-04-15T22:46:04.344Z,85.10
2023-04-15T22:48:32.366Z,85.50
2023-04-15T22:51:00.503Z,85.40
2023-04-15T22:53:28.506Z,85.70
2023-04-15T22:55:56.588Z,86.10
2023-04-15T22:58:24.507Z,85.60
2023-04-15T23:00:52.633Z,85.80
2023-04-15T23:03:20.693Z,86.10
2023-04-15T23:05:48.967Z,86.70
2023-04-15T23:08:17.491Z,87.00
2023-04-15T23:10:45.558Z,86.80
2023-04-15T23:13:13.807Z,87.30
2023-04-15T23:15:41.833Z,87.10
2023-04-15T23:18:09.977Z,87.40
2023-04-15T23:20:38.083Z,87.60
2023-04-15T23:23:06.083Z,87.60
2023-04-15T23:25:34.245Z,87.90
2023-04-15T23:28:02.167Z,88.10
2023-04-15T23:30:30.434Z,88.40
2023-04-15T23:32:58.663Z,87.90
2023-04-15T23:35:27.646Z,88.10
2023-04-15T23:37:56.812Z,88.10
2023-04-15T23:40:24.895Z,88.50
2023-04-15T23:42:52.961Z,88.60
2023-04-15T23:45:21.060Z,88.60
2023-04-15T23:47:49.089Z,89.20
2023-04-15T23:50:17.217Z,89.20
2023-04-15T23:52:45.283Z,89.60
2023-04-15T23:55:13.318Z,89.60
2023-04-15T23:57:41.716Z,89.60
